createdAt,value
2022-08-26T00:02:07.402Z,21.46
2022-08-26T00:04:35.608Z,21.46
2022-08-26T00:07:03.736Z,21.48
2022-08-26T00:09:37.313Z,21.47
2022-08-26T00:12:12.359Z,21.48
2022-08-26T00:14:41.777Z,21.44
2022-08-26T00:17:10.199Z,21.42
2022-08-26T00:19:38.446Z,21.40
2022-08-26T00:22:06.999Z,21.37
2022-08-26T00:24:35.084Z,21.22
2022-08-26T00:27:03.134Z,21.26
2022-08-26T00:29:35.533Z,21.28
2022-08-26T00:32:06.873Z,21.29
2022-08-26T00:34:35.252Z,21.25
2022-08-26T00:37:03.500Z,21.24
2022-08-26T00:39:31.606Z,21.22
2022-08-26T00:42:00.547Z,21.19
2022-08-26T00:44:28.575Z,21.18
2022-08-26T00:47:02.248Z,21.15
2022-08-26T00:49:36.817Z,21.11
2022-08-26T00:52:09.707Z,21.10
2022-08-26T00:54:42.306Z,21.07
2022-08-26T00:57:15.992Z,21.06
2022-08-26T00:59:46.898Z,21.06
2022-08-26T01:02:20.260Z,21.03
2022-08-26T01:04:55.778Z,21.05
2022-08-26T01:07:26.336Z,21.02
2022-08-26T01:09:56.004Z,20.97
2022-08-26T01:12:25.373Z,21.00
2022-08-26T01:14:53.740Z,20.96
2022-08-26T01:17:23.246Z,20.96
2022-08-26T01:19:53.811Z,20.82
2022-08-26T01:22:26.708Z,20.79
2022-08-26T01:24:58.874Z,20.78
2022-08-26T01:27:32.579Z,20.81
2022-08-26T01:30:01.867Z,20.78
2022-08-26T01:32:33.381Z,20.73
2022-08-26T01:35:02.128Z,20.70
2022-08-26T01:37:39.135Z,20.68
2022-08-26T01:40:14.067Z,20.68
2022-08-26T01:42:46.832Z,20.67
2022-08-26T01:45:16.705Z,20.66
2022-08-26T01:47:44.876Z,20.67
2022-08-26T01:50:15.820Z,20.65
2022-08-26T01:52:56.359Z,20.64
2022-08-26T01:55:32.989Z,20.63
2022-08-26T01:58:04.673Z,20.63
2022-08-26T02:00:34.282Z,20.63
2022-08-26T02:03:18.106Z,20.62
2022-08-26T02:05:48.759Z,20.64
2022-08-26T02:08:24.516Z,20.63
2022-08-26T02:10:55.680Z,20.60
2022-08-26T02:13:26.463Z,20.60
2022-08-26T02:15:55.233Z,20.59
2022-08-26T02:18:23.789Z,20.57
2022-08-26T02:20:54.461Z,20.53
2022-08-26T02:23:24.020Z,20.51
2022-08-26T02:25:57.908Z,20.48
2022-08-26T02:28:28.127Z,20.46
2022-08-26T02:30:56.687Z,20.48
2022-08-26T02:33:24.889Z,20.48
2022-08-26T02:35:53.075Z,20.45
2022-08-26T02:38:21.265Z,20.42
2022-08-26T02:40:49.507Z,20.39
2022-08-26T02:43:31.318Z,20.41
2022-08-26T02:46:01.936Z,20.40
2022-08-26T02:48:30.995Z,20.38
2022-08-26T02:51:00.515Z,20.34
2022-08-26T02:53:29.134Z,20.31
2022-08-26T02:56:00.562Z,20.34
2022-08-26T02:58:29.936Z,20.34
2022-08-26T03:00:58.001Z,20.33
2022-08-26T03:03:26.445Z,20.31
2022-08-26T03:05:55.839Z,20.26
2022-08-26T03:08:24.074Z,20.25
2022-08-26T03:10:53.501Z,20.24
2022-08-26T03:13:21.523Z,20.25
2022-08-26T03:15:50.935Z,20.19
2022-08-26T03:18:19.130Z,20.20
2022-08-26T03:20:48.606Z,20.20
2022-08-26T03:23:16.866Z,20.16
2022-08-26T03:25:50.253Z,20.13
2022-08-26T03:28:19.387Z,20.09
2022-08-26T03:30:48.028Z,20.11
2022-08-26T03:33:19.107Z,20.09
2022-08-26T03:35:50.473Z,20.06
2022-08-26T03:38:19.326Z,20.03
2022-08-26T03:40:47.539Z,19.99
2022-08-26T03:43:16.911Z,19.94
2022-08-26T03:45:45.947Z,19.96
2022-08-26T03:48:14.296Z,19.95
2022-08-26T03:50:43.950Z,19.92
2022-08-26T03:53:12.774Z,19.88
2022-08-26T03:55:43.234Z,19.86
2022-08-26T03:58:11.964Z,19.80
2022-08-26T04:00:39.976Z,19.82
2022-08-26T04:03:09.983Z,19.78
2022-08-26T04:05:38.952Z,19.72
2022-08-26T04:08:08.307Z,19.69
2022-08-26T04:10:39.089Z,19.71
2022-08-26T04:13:07.250Z,19.67
2022-08-26T04:15:35.481Z,19.67
2022-08-26T04:18:04.327Z,19.65
2022-08-26T04:20:32.419Z,19.63
2022-08-26T04:23:00.592Z,19.58
2022-08-26T04:25:29.987Z,19.60
2022-08-26T04:27:58.071Z,19.58
2022-08-26T04:30:26.200Z,19.59
2022-08-26T04:32:54.228Z,19.60
2022-08-26T04:35:25.849Z,19.59
2022-08-26T04:37:55.388Z,19.58
2022-08-26T04:40:23.745Z,19.56
2022-08-26T04:42:53.210Z,19.60
2022-08-26T04:45:22.934Z,19.60
2022-08-26T04:47:54.687Z,19.59
2022-08-26T04:50:23.679Z,19.58
2022-08-26T04:52:52.973Z,19.51
2022-08-26T04:55:20.970Z,19.43
2022-08-26T04:57:54.952Z,19.39
2022-08-26T05:00:23.266Z,19.43
2022-08-26T05:02:51.526Z,19.46
2022-08-26T05:05:19.687Z,19.44
2022-08-26T05:07:48.838Z,19.41
2022-08-26T05:10:18.119Z,19.42
2022-08-26T05:12:46.821Z,19.42
2022-08-26T05:15:16.380Z,19.43
2022-08-26T05:17:44.458Z,19.46
2022-08-26T05:20:13.459Z,19.47
2022-08-26T05:22:41.460Z,19.50
2022-08-26T05:25:10.459Z,19.53
2022-08-26T05:27:38.558Z,19.53
2022-08-26T05:30:08.456Z,19.59
2022-08-26T05:32:38.197Z,19.63
2022-08-26T05:35:08.888Z,19.64
2022-08-26T05:37:38.425Z,19.65
2022-08-26T05:40:08.128Z,19.64
2022-08-26T05:42:36.392Z,19.66
2022-08-26T05:45:05.054Z,19.69
2022-08-26T05:47:33.022Z,19.72
2022-08-26T05:50:05.482Z,19.74
2022-08-26T05:52:33.862Z,19.79
2022-08-26T05:55:02.227Z,19.80
2022-08-26T05:57:30.613Z,19.83
2022-08-26T05:59:58.909Z,19.85
2022-08-26T06:02:27.051Z,19.87
2022-08-26T06:04:55.526Z,19.90
2022-08-26T06:07:45.055Z,19.94
2022-08-26T06:10:32.646Z,19.98
2022-08-26T06:13:04.555Z,20.02
2022-08-26T06:15:42.141Z,20.06
2022-08-26T06:18:11.010Z,20.09
2022-08-26T06:20:43.692Z,20.10
2022-08-26T06:23:45.409Z,20.15
2022-08-26T06:26:14.842Z,20.18
2022-08-26T06:28:45.441Z,20.22
2022-08-26T06:31:14.374Z,20.27
2022-08-26T06:33:42.776Z,20.25
2022-08-26T06:36:10.890Z,20.32
2022-08-26T06:38:41.880Z,20.36
2022-08-26T06:41:12.074Z,20.41
2022-08-26T06:43:40.168Z,20.44
2022-08-26T06:46:12.087Z,20.50
2022-08-26T06:48:40.717Z,20.56
2022-08-26T06:51:11.701Z,20.62
2022-08-26T06:53:42.624Z,20.70
2022-08-26T06:56:11.953Z,20.76
2022-08-26T06:58:41.276Z,20.82
2022-08-26T07:01:16.807Z,20.88
2022-08-26T07:03:47.016Z,20.95
2022-08-26T07:06:18.574Z,21.02
2022-08-26T07:08:48.359Z,21.09
2022-08-26T07:11:16.898Z,21.14
2022-08-26T07:13:45.003Z,21.20
2022-08-26T07:16:16.435Z,21.24
2022-08-26T07:18:46.110Z,21.30
2022-08-26T07:21:19.055Z,21.36
2022-08-26T07:23:49.392Z,21.43
2022-08-26T07:26:20.724Z,21.50
2022-08-26T07:28:53.488Z,21.58
2022-08-26T07:31:23.786Z,21.64
2022-08-26T07:33:52.352Z,21.69
2022-08-26T07:36:21.344Z,21.78
2022-08-26T07:38:51.828Z,21.84
2022-08-26T07:41:22.678Z,21.89
2022-08-26T07:43:50.931Z,21.94
2022-08-26T07:46:20.854Z,22.03
2022-08-26T07:48:56.409Z,22.11
2022-08-26T07:51:24.992Z,22.20
2022-08-26T07:53:55.135Z,22.26
2022-08-26T07:56:24.017Z,22.34
2022-08-26T07:58:54.024Z,22.39
2022-08-26T08:01:23.607Z,22.43
2022-08-26T08:03:52.363Z,22.55
2022-08-26T08:06:21.209Z,22.63
2022-08-26T08:08:51.677Z,22.73
2022-08-26T08:11:21.664Z,22.83
2022-08-26T08:13:56.127Z,22.85
2022-08-26T08:16:26.282Z,22.92
2022-08-26T08:18:54.602Z,23.01
2022-08-26T08:21:25.907Z,23.09
2022-08-26T08:23:55.347Z,23.17
2022-08-26T08:26:26.143Z,23.21
2022-08-26T08:29:18.725Z,23.30
2022-08-26T08:31:58.808Z,23.40
2022-08-26T08:34:29.342Z,23.48
2022-08-26T08:36:57.645Z,23.56
2022-08-26T08:39:26.365Z,23.65
2022-08-26T08:42:11.874Z,23.67
2022-08-26T08:44:42.611Z,23.78
2022-08-26T08:47:19.183Z,23.82
2022-08-26T08:49:49.362Z,23.90
2022-08-26T08:52:27.224Z,23.92
2022-08-26T08:54:56.673Z,23.99
2022-08-26T08:57:30.318Z,24.02
2022-08-26T09:00:03.242Z,24.08
2022-08-26T09:02:37.088Z,23.99
2022-08-26T09:05:14.956Z,24.16
2022-08-26T09:07:47.277Z,24.18
2022-08-26T09:10:30.536Z,24.22
2022-08-26T09:13:00.819Z,24.31
2022-08-26T09:15:41.510Z,24.37
2022-08-26T09:18:17.867Z,24.40
2022-08-26T09:20:51.725Z,24.51
2022-08-26T09:23:19.742Z,24.54
2022-08-26T09:25:51.297Z,24.65
2022-08-26T09:28:23.419Z,24.72
2022-08-26T09:31:01.480Z,24.80
2022-08-26T09:33:31.909Z,24.88
2022-08-26T09:36:22.770Z,24.93
2022-08-26T09:38:53.567Z,24.99
2022-08-26T09:41:26.328Z,24.80
2022-08-26T09:44:18.563Z,25.02
2022-08-26T09:46:54.710Z,25.14
2022-08-26T09:49:31.600Z,25.26
2022-08-26T09:52:14.649Z,25.31
2022-08-26T09:54:44.362Z,25.36
2022-08-26T09:57:26.514Z,25.50
2022-08-26T09:59:56.187Z,25.56
2022-08-26T10:02:41.522Z,25.52
2022-08-26T10:05:20.094Z,25.62
2022-08-26T10:07:51.358Z,25.62
2022-08-26T10:10:24.032Z,25.61
2022-08-26T10:12:58.950Z,25.74
2022-08-26T10:15:29.151Z,25.87
2022-08-26T10:18:03.736Z,25.94
2022-08-26T10:20:36.229Z,26.01
2022-08-26T10:23:07.852Z,25.87
2022-08-26T10:25:39.640Z,25.92
2022-08-26T10:28:13.424Z,25.97
2022-08-26T10:30:47.075Z,26.04
2022-08-26T10:33:17.961Z,25.91
2022-08-26T10:35:53.228Z,25.93
2022-08-26T10:38:26.391Z,26.14
2022-08-26T10:41:02.388Z,26.26
2022-08-26T10:43:41.332Z,26.35
2022-08-26T10:46:17.146Z,26.43
2022-08-26T10:48:48.358Z,26.45
2022-08-26T10:51:23.944Z,26.43
2022-08-26T10:53:57.656Z,26.47
2022-08-26T10:56:37.789Z,26.45
2022-08-26T10:59:12.251Z,26.58
2022-08-26T11:01:52.553Z,26.74
2022-08-26T11:04:34.958Z,26.71
2022-08-26T11:07:51.466Z,26.73
2022-08-26T11:10:59.033Z,26.99
2022-08-26T11:14:02.110Z,27.10
2022-08-26T11:16:35.206Z,27.16
2022-08-26T11:19:05.417Z,27.06
2022-08-26T11:21:50.635Z,27.09
2022-08-26T11:24:41.279Z,27.15
2022-08-26T11:27:12.292Z,27.13
2022-08-26T11:30:00.214Z,27.20
2022-08-26T11:32:48.715Z,27.20
2022-08-26T11:35:50.313Z,27.10
2022-08-26T11:38:26.531Z,27.18
2022-08-26T11:41:06.202Z,26.97
2022-08-26T11:43:35.488Z,27.03
2022-08-26T11:46:05.767Z,27.04
2022-08-26T11:48:37.234Z,26.99
2022-08-26T11:51:08.520Z,26.94
2022-08-26T11:53:39.162Z,26.91
2022-08-26T11:56:09.828Z,26.97
2022-08-26T11:58:43.665Z,27.15
2022-08-26T12:01:13.282Z,27.22
2022-08-26T12:03:49.129Z,27.22
2022-08-26T12:06:24.354Z,27.28
2022-08-26T12:08:53.814Z,27.30
2022-08-26T12:11:24.137Z,27.37
2022-08-26T12:13:57.231Z,27.16
2022-08-26T12:16:27.172Z,27.30
2022-08-26T12:18:56.395Z,27.31
2022-08-26T12:21:29.047Z,27.47
2022-08-26T12:24:04.873Z,27.55
2022-08-26T12:26:34.980Z,27.57
2022-08-26T12:29:19.797Z,27.65
2022-08-26T12:31:53.836Z,27.68
2022-08-26T12:34:21.907Z,27.72
2022-08-26T12:36:55.322Z,27.80
2022-08-26T12:39:28.091Z,27.78
2022-08-26T12:41:57.871Z,27.70
2022-08-26T12:44:36.870Z,27.54
2022-08-26T12:47:08.281Z,27.48
2022-08-26T12:49:37.170Z,27.49
2022-08-26T12:52:08.038Z,27.51
2022-08-26T12:54:56.704Z,27.43
2022-08-26T12:57:27.862Z,27.41
2022-08-26T12:59:56.178Z,27.45
2022-08-26T13:02:36.891Z,27.49
2022-08-26T13:05:05.564Z,27.41
2022-08-26T13:07:35.293Z,27.38
2022-08-26T13:10:03.409Z,27.37
2022-08-26T13:12:33.474Z,26.91
2022-08-26T13:15:02.490Z,27.07
2022-08-26T13:17:31.730Z,27.11
2022-08-26T13:20:04.222Z,27.05
2022-08-26T13:22:32.683Z,26.99
2022-08-26T13:25:02.091Z,26.92
2022-08-26T13:27:30.607Z,26.85
2022-08-26T13:29:59.809Z,26.69
2022-08-26T13:32:28.484Z,26.71
2022-08-26T13:34:57.642Z,26.56
2022-08-26T13:37:35.312Z,26.44
2022-08-26T13:40:06.041Z,26.09
2022-08-26T13:42:34.375Z,26.02
2022-08-26T13:45:02.800Z,26.04
2022-08-26T13:47:31.835Z,26.01
2022-08-26T13:49:59.931Z,26.11
2022-08-26T13:52:30.974Z,26.09
2022-08-26T13:55:00.189Z,26.19
2022-08-26T13:57:30.636Z,26.11
2022-08-26T13:59:59.969Z,26.18
2022-08-26T14:02:28.731Z,26.21
2022-08-26T14:04:56.792Z,26.34
2022-08-26T14:07:25.096Z,26.34
2022-08-26T14:09:53.117Z,26.35
2022-08-26T14:12:21.118Z,26.63
2022-08-26T14:14:50.892Z,26.90
2022-08-26T14:17:20.861Z,27.06
2022-08-26T14:19:50.707Z,27.05
2022-08-26T14:22:20.613Z,27.16
2022-08-26T14:24:49.172Z,27.29
2022-08-26T14:27:17.365Z,27.50
2022-08-26T14:29:45.525Z,27.51
2022-08-26T14:32:20.991Z,27.63
2022-08-26T14:34:50.643Z,27.70
2022-08-26T14:37:19.789Z,27.82
2022-08-26T14:39:48.191Z,27.96
2022-08-26T14:42:18.246Z,28.11
2022-08-26T14:44:48.327Z,28.12
2022-08-26T14:47:18.056Z,28.07
2022-08-26T14:49:46.076Z,28.04
2022-08-26T14:52:15.940Z,28.09
2022-08-26T14:54:43.028Z,28.05
2022-08-26T14:57:12.971Z,28.12
2022-08-26T14:59:43.695Z,28.08
2022-08-26T15:02:32.535Z,28.20
2022-08-26T15:05:02.170Z,28.10
2022-08-26T15:07:30.218Z,28.20
2022-08-26T15:09:58.317Z,28.21
2022-08-26T15:12:26.349Z,28.22
2022-08-26T15:14:54.413Z,28.27
2022-08-26T15:17:23.978Z,28.39
2022-08-26T15:19:52.854Z,28.50
2022-08-26T15:22:20.986Z,28.34
2022-08-26T15:24:51.826Z,28.31
2022-08-26T15:27:22.046Z,28.52
2022-08-26T15:29:50.198Z,28.50
2022-08-26T15:32:18.337Z,28.67
2022-08-26T15:34:48.772Z,28.76
2022-08-26T15:37:16.861Z,28.90
2022-08-26T15:39:45.072Z,28.70
2022-08-26T15:42:13.103Z,28.80
2022-08-26T15:44:44.023Z,28.93
2022-08-26T15:47:12.670Z,29.02
2022-08-26T15:49:41.244Z,29.00
2022-08-26T15:52:10.643Z,29.07
2022-08-26T15:54:39.626Z,29.05
2022-08-26T15:57:11.468Z,28.90
2022-08-26T15:59:40.482Z,28.77
2022-08-26T16:02:08.765Z,28.77
2022-08-26T16:04:36.872Z,28.68
2022-08-26T16:07:05.491Z,28.68
2022-08-26T16:09:34.945Z,28.55
2022-08-26T16:12:03.216Z,28.43
2022-08-26T16:14:31.521Z,28.42
2022-08-26T16:16:59.556Z,28.37
2022-08-26T16:19:27.901Z,28.23
2022-08-26T16:21:55.979Z,28.31
2022-08-26T16:24:29.716Z,28.13
2022-08-26T16:26:59.511Z,28.10
2022-08-26T16:29:27.711Z,27.88
2022-08-26T16:31:55.792Z,27.60
2022-08-26T16:34:24.450Z,27.73
2022-08-26T16:36:52.548Z,27.80
2022-08-26T16:39:20.558Z,27.69
2022-08-26T16:41:48.574Z,27.61
2022-08-26T16:44:17.958Z,27.52
2022-08-26T16:46:46.553Z,27.57
2022-08-26T16:49:14.953Z,27.58
2022-08-26T16:51:42.981Z,27.47
2022-08-26T16:54:11.019Z,27.39
2022-08-26T16:56:39.146Z,27.26
2022-08-26T16:59:09.435Z,27.10
2022-08-26T17:01:39.046Z,27.15
2022-08-26T17:04:07.115Z,27.20
2022-08-26T17:06:35.343Z,26.97
2022-08-26T17:09:03.403Z,26.91
2022-08-26T17:11:31.965Z,26.83
2022-08-26T17:13:59.985Z,26.72
2022-08-26T17:16:28.548Z,26.61
2022-08-26T17:18:58.913Z,26.75
2022-08-26T17:21:30.030Z,26.63
2022-08-26T17:23:58.095Z,26.51
2022-08-26T17:26:26.800Z,26.50
2022-08-26T17:28:55.203Z,26.51
2022-08-26T17:31:24.393Z,26.55
2022-08-26T17:33:53.570Z,26.55
2022-08-26T17:36:27.585Z,26.46
2022-08-26T17:38:57.032Z,26.29
2022-08-26T17:41:25.416Z,26.32
2022-08-26T17:43:53.403Z,26.25
2022-08-26T17:46:21.478Z,26.23
2022-08-26T17:48:49.525Z,26.23
2022-08-26T17:51:19.519Z,26.22
2022-08-26T17:53:49.650Z,26.21
2022-08-26T17:56:19.438Z,26.18
2022-08-26T17:58:51.104Z,26.16
2022-08-26T18:01:20.061Z,26.12
2022-08-26T18:03:48.475Z,26.05
2022-08-26T18:06:16.556Z,25.93
2022-08-26T18:08:44.995Z,25.90
2022-08-26T18:11:15.798Z,25.85
2022-08-26T18:13:47.333Z,25.80
2022-08-26T18:16:16.892Z,25.73
2022-08-26T18:18:46.542Z,25.68
2022-08-26T18:21:16.716Z,25.64
2022-08-26T18:23:45.564Z,25.54
2022-08-26T18:26:19.197Z,25.49
2022-08-26T18:28:49.704Z,25.42
2022-08-26T18:31:18.399Z,25.38
2022-08-26T18:33:46.577Z,25.33
2022-08-26T18:36:19.112Z,25.27
2022-08-26T18:38:47.452Z,25.22
2022-08-26T18:41:21.523Z,25.17
2022-08-26T18:43:50.752Z,25.12
2022-08-26T18:46:19.932Z,25.09
2022-08-26T18:48:51.168Z,25.04
2022-08-26T18:51:21.991Z,25.01
2022-08-26T18:53:50.528Z,24.97
2022-08-26T18:56:20.063Z,24.91
2022-08-26T18:58:48.464Z,24.86
2022-08-26T19:01:16.829Z,24.82
2022-08-26T19:03:45.094Z,24.79
2022-08-26T19:06:15.549Z,24.69
2022-08-26T19:08:44.725Z,24.67
2022-08-26T19:11:13.839Z,24.64
2022-08-26T19:13:44.119Z,24.58
2022-08-26T19:16:16.785Z,24.49
2022-08-26T19:18:45.028Z,24.21
2022-08-26T19:21:13.485Z,24.19
2022-08-26T19:23:41.725Z,24.20
2022-08-26T19:26:10.945Z,24.17
2022-08-26T19:28:40.787Z,23.91
2022-08-26T19:31:11.456Z,23.95
2022-08-26T19:33:40.141Z,23.97
2022-08-26T19:36:14.094Z,23.96
2022-08-26T19:38:43.297Z,23.90
2022-08-26T19:41:13.164Z,23.85
2022-08-26T19:43:41.294Z,23.84
2022-08-26T19:46:15.247Z,23.80
2022-08-26T19:48:44.397Z,23.80
2022-08-26T19:51:17.783Z,23.78
2022-08-26T19:53:46.998Z,23.73
2022-08-26T19:56:16.872Z,23.69
2022-08-26T19:58:45.389Z,23.66
2022-08-26T20:01:16.680Z,23.64
2022-08-26T20:03:45.590Z,23.62
2022-08-26T20:06:15.299Z,23.60
2022-08-26T20:08:44.201Z,23.55
2022-08-26T20:11:37.480Z,23.48
2022-08-26T20:14:05.467Z,23.42
2022-08-26T20:16:35.034Z,23.37
2022-08-26T20:19:20.608Z,23.30
2022-08-26T20:21:48.809Z,23.28
2022-08-26T20:24:21.095Z,23.19
2022-08-26T20:26:49.809Z,23.18
2022-08-26T20:29:19.464Z,23.02
2022-08-26T20:31:49.584Z,22.95
2022-08-26T20:34:18.949Z,22.93
2022-08-26T20:36:48.303Z,23.01
2022-08-26T20:39:17.255Z,22.87
2022-08-26T20:41:45.492Z,22.95
2022-08-26T20:44:14.321Z,22.94
2022-08-26T20:46:42.346Z,22.90
2022-08-26T20:49:11.750Z,22.86
2022-08-26T20:51:39.744Z,22.87
2022-08-26T20:54:08.344Z,22.77
2022-08-26T20:56:36.990Z,22.81
2022-08-26T20:59:06.843Z,22.75
2022-08-26T21:01:36.419Z,22.75
2022-08-26T21:04:10.833Z,22.73
2022-08-26T21:06:40.218Z,22.61
2022-08-26T21:09:13.510Z,22.56
2022-08-26T21:11:44.245Z,22.44
2022-08-26T21:14:16.109Z,22.46
2022-08-26T21:16:46.014Z,22.42
2022-08-26T21:21:45.511Z,22.46
2022-08-26T21:24:14.158Z,22.48
2022-08-26T21:26:42.375Z,22.40
2022-08-26T21:29:10.513Z,22.36
2022-08-26T21:31:44.863Z,22.35
2022-08-26T21:34:14.015Z,22.26
2022-08-26T21:36:42.050Z,22.22
2022-08-26T21:39:12.221Z,22.27
2022-08-26T21:41:41.156Z,22.32
2022-08-26T21:44:09.985Z,22.33
2022-08-26T21:46:38.996Z,22.34
2022-08-26T21:49:08.966Z,22.28
2022-08-26T21:51:38.879Z,22.18
2022-08-26T21:54:10.995Z,22.16
2022-08-26T21:56:44.256Z,22.20
2022-08-26T21:59:13.015Z,21.89
2022-08-26T22:01:41.372Z,21.89
2022-08-26T22:04:10.687Z,21.94
2022-08-26T22:06:43.324Z,21.99
2022-08-26T22:09:12.401Z,21.96
2022-08-26T22:11:41.949Z,21.97
2022-08-26T22:14:10.369Z,21.96
2022-08-26T22:16:38.485Z,22.03
2022-08-26T22:19:06.626Z,22.06
2022-08-26T22:21:35.693Z,22.09
2022-08-26T22:24:06.141Z,22.13
2022-08-26T22:26:35.198Z,22.16
2022-08-26T22:29:06.223Z,22.17
2022-08-26T22:31:38.064Z,22.16
2022-08-26T22:34:08.277Z,22.12
2022-08-26T22:36:43.199Z,22.15
2022-08-26T22:39:13.184Z,22.16
2022-08-26T22:41:42.081Z,22.18
2022-08-26T22:44:11.754Z,22.09
2022-08-26T22:46:40.286Z,21.83
2022-08-26T22:49:09.669Z,21.70
2022-08-26T22:51:37.720Z,21.58
2022-08-26T22:54:06.230Z,21.48
2022-08-26T22:56:34.393Z,21.55
2022-08-26T22:59:02.400Z,21.62
2022-08-26T23:01:32.246Z,21.71
2022-08-26T23:04:00.319Z,21.67
2022-08-26T23:06:28.331Z,21.68
2022-08-26T23:08:56.307Z,21.72
2022-08-26T23:11:24.366Z,21.55
2022-08-26T23:13:52.375Z,21.58
2022-08-26T23:16:21.175Z,21.55
2022-08-26T23:18:51.261Z,21.32
2022-08-26T23:21:19.546Z,21.35
2022-08-26T23:23:47.484Z,21.37
2022-08-26T23:26:17.794Z,21.24
2022-08-26T23:28:45.905Z,21.37
2022-08-26T23:31:14.809Z,21.43
2022-08-26T23:34:14.913Z,21.47
2022-08-26T23:36:44.333Z,21.32
2022-08-26T23:39:14.694Z,21.39
2022-08-26T23:41:46.873Z,21.35
2022-08-26T23:44:14.881Z,21.28
2022-08-26T23:46:42.843Z,21.25
2022-08-26T23:49:10.854Z,21.04
2022-08-26T23:54:48.870Z,20.29
2022-08-26T23:57:17.890Z,20.19
2022-08-26T23:59:45.881Z,20.29
